Time;durP1;ratioP1;P1;durP2;ratioP2;P2;SDS_P1;SDS_P2;PMS_P1;PMS_P2;Temp;Humidity;BMP_temperature;BMP_pressure;BME280_temperature;BME280_humidity;BME280_pressure;Samples;Min_cycle;Max_cycle;Signal;HPM_P1;HPM_P2
2023/08/05 00:01:40;;;;;;;7.10;5.90;;;16.40;99.90;;;;;;4966930;28;20193;-28
2023/08/05 00:04:06;;;;;;;6.22;5.63;;;16.40;99.90;;;;;;4973811;28;20184;-29
2023/08/05 00:06:32;;;;;;;6.72;5.78;;;16.40;99.90;;;;;;4967168;28;20247;-29
2023/08/05 00:08:58;;;;;;;7.57;5.90;;;16.40;99.90;;;;;;4970210;28;20215;-29
2023/08/05 00:11:24;;;;;;;8.30;6.30;;;16.30;99.90;;;;;;4964322;28;20184;-28
2023/08/05 00:13:49;;;;;;;6.97;5.93;;;16.30;99.90;;;;;;4978198;28;20181;-28
2023/08/05 00:16:15;;;;;;;7.43;5.88;;;16.30;99.90;;;;;;4969473;28;20223;-29
2023/08/05 00:18:41;;;;;;;7.20;5.90;;;16.30;99.90;;;;;;4964644;28;20208;-28
2023/08/05 00:21:07;;;;;;;9.20;6.45;;;16.30;99.90;;;;;;4969060;28;20188;-28
2023/08/05 00:23:33;;;;;;;8.35;6.80;;;16.30;99.90;;;;;;4969683;28;20188;-29
2023/08/05 00:25:58;;;;;;;6.85;6.15;;;16.30;99.90;;;;;;4986611;28;20180;-28
2023/08/05 00:28:24;;;;;;;9.20;6.13;;;16.20;99.90;;;;;;4965721;28;20248;-29
2023/08/05 00:30:50;;;;;;;11.63;5.93;;;16.20;99.90;;;;;;4985213;28;20184;-30
2023/08/05 00:33:16;;;;;;;6.47;5.63;;;16.20;99.90;;;;;;4970658;28;20184;-29
2023/08/05 00:35:42;;;;;;;9.40;6.13;;;16.20;99.90;;;;;;4970962;28;20271;-29
2023/08/05 00:38:07;;;;;;;7.43;5.37;;;16.20;99.90;;;;;;4974624;28;20265;-28
2023/08/05 00:40:33;;;;;;;7.60;6.00;;;16.20;99.90;;;;;;4983472;28;20192;-28
2023/08/05 00:42:59;;;;;;;8.17;6.23;;;16.20;99.90;;;;;;4970238;28;20234;-28
2023/08/05 00:45:25;;;;;;;8.83;5.63;;;16.20;99.90;;;;;;4970410;28;20270;-28
2023/08/05 00:47:52;;;;;;;6.45;5.85;;;16.10;99.90;;;;;;4961361;28;20201;-29
2023/08/05 00:50:20;;;;;;;7.13;5.70;;;16.10;99.90;;;;;;4962074;28;20211;-29
2023/08/05 00:52:46;;;;;;;7.00;5.70;;;16.10;99.90;;;;;;4970445;28;20260;-28
2023/08/05 00:55:12;;;;;;;6.10;5.47;;;16.10;99.90;;;;;;4969433;28;20183;-28
2023/08/05 00:57:38;;;;;;;8.70;6.10;;;16.10;99.90;;;;;;4968928;28;20176;-29
2023/08/05 01:00:04;;;;;;;7.57;5.30;;;16.00;99.90;;;;;;4967075;28;20188;-28
2023/08/05 01:02:30;;;;;;;8.43;6.07;;;16.00;99.90;;;;;;4953936;28;20192;-28
2023/08/05 01:04:56;;;;;;;9.00;6.07;;;16.00;99.90;;;;;;4955876;28;20184;-27
2023/08/05 01:07:22;;;;;;;9.20;5.93;;;16.00;99.90;;;;;;4971984;28;20256;-27
2023/08/05 01:09:49;;;;;;;9.30;6.63;;;15.90;99.90;;;;;;4955716;28;20303;-27
2023/08/05 01:12:15;;;;;;;8.13;5.83;;;15.90;99.90;;;;;;4955594;28;20173;-28
2023/08/05 01:14:40;;;;;;;6.87;5.97;;;15.80;99.90;;;;;;4955508;28;20264;-28
2023/08/05 01:17:07;;;;;;;6.77;6.10;;;15.80;99.90;;;;;;4955618;28;20189;-28
2023/08/05 01:19:34;;;;;;;7.77;5.70;;;15.80;99.90;;;;;;4955905;28;20251;-29
2023/08/05 01:22:22;;;;;;;6.63;6.00;;;15.80;99.90;;;;;;4968862;28;20190;-28
2023/08/05 01:25:04;;;;;;;6.80;5.30;;;15.80;99.90;;;;;;4969107;28;20195;-29
2023/08/05 01:27:50;;;;;;;7.53;6.13;;;15.80;99.90;;;;;;4954050;28;20235;-28
2023/08/05 01:30:16;;;;;;;7.23;5.30;;;15.80;99.90;;;;;;4951215;28;20197;-28
2023/08/05 01:32:43;;;;;;;9.37;5.97;;;15.90;99.90;;;;;;4969142;28;20214;-27
2023/08/05 01:35:09;;;;;;;8.97;5.70;;;15.90;99.90;;;;;;4960417;28;20178;-29
2023/08/05 01:37:36;;;;;;;5.67;4.90;;;15.90;99.90;;;;;;4962723;28;20184;-29
2023/08/05 01:40:02;;;;;;;5.97;5.00;;;15.90;99.90;;;;;;4963948;28;20198;-27
2023/08/05 01:42:28;;;;;;;6.57;5.10;;;16.00;99.90;;;;;;4970397;28;20176;-29
2023/08/05 01:44:54;;;;;;;5.47;4.70;;;16.00;99.90;;;;;;4973808;28;20188;-29
2023/08/05 01:47:20;;;;;;;8.67;5.03;;;16.00;99.90;;;;;;4964975;28;20215;-29
2023/08/05 01:49:46;;;;;;;9.83;5.33;;;15.90;99.90;;;;;;4963789;28;20219;-28
2023/08/05 01:52:12;;;;;;;8.67;5.77;;;15.90;99.90;;;;;;4971127;28;20176;-28
2023/08/05 01:54:37;;;;;;;6.17;5.00;;;15.90;99.90;;;;;;4969759;28;20267;-27
2023/08/05 01:57:04;;;;;;;7.60;5.07;;;15.80;99.90;;;;;;4971533;28;20188;-28
2023/08/05 01:59:29;;;;;;;6.77;5.17;;;15.80;99.90;;;;;;4973871;28;20211;-29
2023/08/05 02:01:55;;;;;;;5.90;4.97;;;15.80;99.90;;;;;;4972989;28;20183;-28
2023/08/05 02:04:21;;;;;;;8.70;6.30;;;15.80;99.90;;;;;;4984301;28;20187;-28
2023/08/05 02:06:47;;;;;;;7.63;5.87;;;15.80;99.90;;;;;;4966237;28;20191;-28
2023/08/05 02:09:13;;;;;;;8.43;5.50;;;15.80;99.90;;;;;;4971269;28;20265;-28
2023/08/05 02:11:39;;;;;;;5.60;5.07;;;15.80;99.90;;;;;;4978882;28;20183;-27
2023/08/05 02:14:04;;;;;;;10.50;5.63;;;15.80;99.90;;;;;;4973047;28;20184;-28
2023/08/05 02:16:34;;;;;;;6.27;5.43;;;15.70;99.90;;;;;;4960086;28;20195;-29
2023/08/05 02:19:01;;;;;;;6.13;5.10;;;15.70;99.90;;;;;;4957100;28;20741;-27
2023/08/05 02:21:27;;;;;;;5.50;5.00;;;15.70;99.90;;;;;;4984804;28;20184;-27
2023/08/05 02:23:53;;;;;;;7.43;5.67;;;15.70;99.90;;;;;;4974178;28;20188;-28
2023/08/05 02:26:19;;;;;;;8.10;5.57;;;15.70;99.90;;;;;;4962145;28;20188;-28
2023/08/05 02:28:46;;;;;;;7.30;5.37;;;15.70;99.90;;;;;;4972387;28;20250;-27
2023/08/05 02:31:13;;;;;;;7.90;5.93;;;15.70;99.90;;;;;;4960113;28;20184;-27
2023/08/05 02:33:39;;;;;;;6.63;5.60;;;15.70;99.90;;;;;;4974217;28;20188;-28
2023/08/05 02:36:05;;;;;;;6.83;5.40;;;15.60;99.90;;;;;;4962535;28;20215;-28
2023/08/05 02:38:31;;;;;;;6.37;5.43;;;15.60;99.90;;;;;;4974092;28;20211;-27
2023/08/05 02:40:58;;;;;;;7.90;5.20;;;15.70;99.90;;;;;;4972917;28;20187;-27
2023/08/05 02:43:24;;;;;;;7.60;5.97;;;15.70;99.90;;;;;;4974053;28;20231;-29
2023/08/05 02:45:55;;;;;;;8.00;5.57;;;15.70;99.90;;;;;;4961391;28;20203;-28
2023/08/05 02:48:21;;;;;;;7.73;5.07;;;15.60;99.90;;;;;;4977270;28;20211;-29
2023/08/05 02:50:49;;;;;;;6.97;5.50;;;15.60;99.90;;;;;;4966625;28;20188;-28
2023/08/05 02:53:14;;;;;;;5.83;5.23;;;15.60;99.90;;;;;;4974030;28;20183;-28
2023/08/05 02:55:40;;;;;;;6.93;5.50;;;15.60;99.90;;;;;;4971544;28;20188;-28
2023/08/05 02:58:06;;;;;;;5.37;4.87;;;15.60;99.90;;;;;;4977303;28;20250;-30
2023/08/05 03:00:32;;;;;;;9.03;5.60;;;15.60;99.90;;;;;;4977471;28;20186;-28
2023/08/05 03:02:58;;;;;;;5.90;4.50;;;15.60;99.90;;;;;;4964220;28;20264;-27
2023/08/05 03:05:24;;;;;;;6.63;5.33;;;15.60;99.90;;;;;;4976380;28;20291;-27
2023/08/05 03:07:50;;;;;;;7.00;5.50;;;15.60;99.90;;;;;;4975757;28;20267;-28
2023/08/05 03:10:16;;;;;;;5.73;5.10;;;15.60;99.90;;;;;;4976113;28;20250;-29
2023/08/05 03:12:42;;;;;;;5.83;5.10;;;15.60;99.90;;;;;;4975681;28;20188;-29
2023/08/05 03:15:09;;;;;;;5.40;4.80;;;15.60;99.90;;;;;;4972457;28;20180;-28
2023/08/05 03:17:35;;;;;;;5.57;5.07;;;15.60;99.90;;;;;;4975577;28;20235;-28
2023/08/05 03:20:21;;;;;;;6.03;5.30;;;15.60;99.90;;;;;;4958442;28;20192;-28
2023/08/05 03:22:48;;;;;;;6.43;5.00;;;15.60;99.90;;;;;;4977145;28;20180;-31
2023/08/05 03:25:14;;;;;;;11.07;5.60;;;15.60;99.90;;;;;;4969699;28;20238;-27
2023/08/05 03:27:40;;;;;;;6.93;5.70;;;15.60;99.90;;;;;;4969340;28;20188;-27
2023/08/05 03:30:06;;;;;;;8.70;5.57;;;15.60;99.90;;;;;;4976264;28;20295;-27
2023/08/05 03:32:34;;;;;;;8.00;5.33;;;15.60;99.90;;;;;;4974285;28;20243;-27
2023/08/05 03:35:00;;;;;;;6.57;5.23;;;15.60;99.90;;;;;;4989719;28;20183;-28
2023/08/05 03:37:27;;;;;;;6.50;5.00;;;15.60;99.90;;;;;;4975891;28;20176;-29
2023/08/05 03:39:52;;;;;;;6.80;5.47;;;15.60;99.90;;;;;;4976218;28;20218;-28
2023/08/05 03:42:18;;;;;;;8.33;5.30;;;15.60;99.90;;;;;;4972859;28;20184;-27
2023/08/05 03:44:44;;;;;;;6.90;5.70;;;15.70;99.90;;;;;;4970515;28;20189;-27
2023/08/05 03:47:10;;;;;;;6.87;5.37;;;15.70;99.90;;;;;;4967439;28;20706;-28
2023/08/05 03:49:38;;;;;;;6.40;5.40;;;15.70;99.90;;;;;;4957362;28;20211;-28
2023/08/05 03:52:06;;;;;;;6.20;5.00;;;15.60;99.90;;;;;;4971913;28;20172;-29
2023/08/05 03:54:32;;;;;;;5.83;5.00;;;15.60;99.90;;;;;;4976195;28;20172;-28
2023/08/05 03:56:59;;;;;;;5.90;5.40;;;15.60;99.90;;;;;;4972295;28;20192;-28
2023/08/05 03:59:25;;;;;;;5.73;5.10;;;15.70;99.90;;;;;;4976722;28;20216;-28
2023/08/05 04:01:52;;;;;;;5.30;4.77;;;15.70;99.90;;;;;;4968453;28;20203;-29
2023/08/05 04:04:17;;;;;;;6.73;5.40;;;15.60;99.90;;;;;;4971021;28;20187;-29
2023/08/05 04:06:45;;;;;;;5.47;4.87;;;15.60;99.90;;;;;;4973075;28;20191;-29
2023/08/05 04:09:13;;;;;;;5.50;5.00;;;15.60;99.90;;;;;;4973334;28;20224;-28
2023/08/05 04:11:39;;;;;;;7.37;5.37;;;15.60;99.90;;;;;;4969352;28;20273;-28
2023/08/05 04:14:05;;;;;;;8.13;5.27;;;15.50;99.90;;;;;;4970845;28;20643;-27
2023/08/05 04:16:31;;;;;;;5.70;5.10;;;15.50;99.90;;;;;;4982562;28;20177;-28
2023/08/05 04:19:00;;;;;;;6.83;5.20;;;15.50;99.90;;;;;;4964972;28;20204;-30
2023/08/05 04:21:30;;;;;;;6.87;5.17;;;15.40;99.90;;;;;;4969281;28;20183;-28
2023/08/05 04:23:55;;;;;;;5.90;5.30;;;15.40;99.90;;;;;;4975462;28;20191;-28
2023/08/05 04:26:21;;;;;;;6.53;5.33;;;15.40;99.90;;;;;;4973876;28;20176;-27
2023/08/05 04:28:47;;;;;;;6.67;4.97;;;15.50;99.90;;;;;;4972183;28;20266;-27
2023/08/05 04:31:14;;;;;;;9.97;5.20;;;15.50;99.90;;;;;;4967643;28;20227;-28
2023/08/05 04:33:40;;;;;;;5.83;4.87;;;15.50;99.90;;;;;;4975669;28;20180;-28
2023/08/05 04:36:06;;;;;;;6.87;4.83;;;15.50;99.90;;;;;;4975821;28;20180;-28
2023/08/05 04:38:32;;;;;;;6.47;4.97;;;15.50;99.90;;;;;;4970956;28;20266;-29
2023/08/05 04:40:58;;;;;;;5.70;4.70;;;15.60;99.90;;;;;;4975514;28;20191;-27
2023/08/05 04:43:24;;;;;;;6.10;5.07;;;15.60;99.90;;;;;;4964127;28;20279;-27
2023/08/05 04:45:50;;;;;;;4.90;4.30;;;15.50;99.90;;;;;;4973328;28;20283;-27
2023/08/05 04:48:17;;;;;;;6.87;4.40;;;15.50;99.90;;;;;;4957980;28;20208;-28
2023/08/05 04:50:43;;;;;;;5.97;4.93;;;15.50;99.90;;;;;;4968540;28;20188;-28
2023/08/05 04:53:09;;;;;;;5.00;4.47;;;15.50;99.90;;;;;;4970707;28;20191;-28
2023/08/05 04:55:35;;;;;;;6.50;5.20;;;15.40;99.90;;;;;;4968210;28;20219;-27
2023/08/05 04:58:02;;;;;;;5.97;5.37;;;15.40;99.90;;;;;;4969508;28;20223;-27
2023/08/05 05:00:28;;;;;;;6.50;5.23;;;15.40;99.90;;;;;;4985296;28;20180;-28
2023/08/05 05:02:54;;;;;;;6.13;4.70;;;15.40;99.90;;;;;;4967777;28;20291;-28
2023/08/05 05:05:20;;;;;;;7.67;5.07;;;15.40;99.90;;;;;;4969185;28;20180;-28
2023/08/05 05:07:46;;;;;;;8.20;5.63;;;15.40;99.90;;;;;;4963730;28;20184;-28
2023/08/05 05:10:12;;;;;;;7.80;5.00;;;15.40;99.90;;;;;;4974512;28;20234;-28
2023/08/05 05:12:38;;;;;;;8.90;5.00;;;15.50;99.90;;;;;;4969768;28;20184;-27
2023/08/05 05:15:04;;;;;;;6.27;5.13;;;15.50;99.90;;;;;;4968946;28;20183;-28
2023/08/05 05:17:36;;;;;;;7.47;4.90;;;15.50;99.90;;;;;;4957450;28;20253;-27
2023/08/05 05:20:04;;;;;;;6.43;5.30;;;15.50;99.90;;;;;;4964765;28;20255;-27
2023/08/05 05:22:30;;;;;;;6.90;5.00;;;15.60;99.90;;;;;;4985982;28;20188;-27
2023/08/05 05:24:56;;;;;;;7.83;5.60;;;15.60;99.90;;;;;;4975319;28;20223;-29
2023/08/05 05:27:22;;;;;;;10.63;5.90;;;15.60;99.90;;;;;;4966665;28;20304;-26
2023/08/05 05:29:48;;;;;;;6.33;5.07;;;15.60;99.90;;;;;;4966499;28;20208;-27
2023/08/05 05:32:14;;;;;;;8.20;5.40;;;15.60;99.90;;;;;;4969040;28;20211;-28
2023/08/05 05:34:40;;;;;;;7.57;4.97;;;15.60;99.90;;;;;;4974456;28;20180;-27
2023/08/05 05:37:05;;;;;;;7.00;5.10;;;15.60;99.90;;;;;;4969408;28;20187;-28
2023/08/05 05:39:32;;;;;;;6.13;5.17;;;15.60;99.90;;;;;;4969303;28;20199;-28
2023/08/05 05:41:59;;;;;;;5.70;5.10;;;15.60;99.90;;;;;;4969697;28;20181;-28
2023/08/05 05:44:27;;;;;;;8.53;5.00;;;15.70;99.90;;;;;;4960596;28;20644;-28
2023/08/05 05:46:53;;;;;;;6.00;5.00;;;15.70;99.90;;;;;;4962776;28;20195;-28
2023/08/05 05:49:19;;;;;;;6.27;5.23;;;15.70;99.90;;;;;;4955317;28;20220;-27
2023/08/05 05:51:46;;;;;;;6.13;5.03;;;15.70;99.90;;;;;;4968166;28;20184;-27
2023/08/05 05:54:13;;;;;;;7.37;5.17;;;15.70;99.90;;;;;;4972947;28;20191;-28
2023/08/05 05:56:39;;;;;;;6.57;4.97;;;15.70;99.90;;;;;;4969085;28;20177;-28
2023/08/05 05:59:04;;;;;;;5.83;5.23;;;15.70;99.90;;;;;;4964920;28;20224;-28
2023/08/05 06:01:30;;;;;;;7.10;5.40;;;15.80;99.90;;;;;;4972658;28;20198;-27
2023/08/05 06:03:56;;;;;;;7.07;5.50;;;15.90;99.90;;;;;;4966867;28;20188;-28
2023/08/05 06:06:22;;;;;;;6.37;4.80;;;16.10;99.90;;;;;;4974097;28;20188;-28
2023/08/05 06:08:48;;;;;;;5.03;4.53;;;16.20;99.90;;;;;;4970463;28;20219;-28
2023/08/05 06:11:14;;;;;;;6.32;4.50;;;16.30;99.90;;;;;;4971559;28;20195;-27
2023/08/05 06:13:39;;;;;;;8.48;4.72;;;16.30;99.90;;;;;;4971123;28;20176;-30
2023/08/05 06:16:05;;;;;;;6.85;4.53;;;16.40;99.90;;;;;;4969214;28;20656;-29
2023/08/05 06:18:31;;;;;;;5.10;4.60;;;16.40;99.90;;;;;;4956464;28;20331;-29
2023/08/05 06:20:57;;;;;;;6.40;4.75;;;16.40;99.90;;;;;;4964688;28;20184;-28
2023/08/05 06:23:23;;;;;;;6.07;5.47;;;16.50;99.90;;;;;;4967976;28;20187;-29
2023/08/05 06:25:48;;;;;;;7.22;5.20;;;16.50;99.90;;;;;;4969077;28;20190;-28
2023/08/05 06:28:14;;;;;;;6.13;5.00;;;16.60;99.90;;;;;;4967623;28;20211;-28
2023/08/05 06:30:44;;;;;;;5.97;4.63;;;16.70;99.90;;;;;;4972337;28;20268;-30
2023/08/05 06:33:10;;;;;;;6.20;5.05;;;16.90;99.90;;;;;;4967265;28;20180;-28
2023/08/05 06:35:36;;;;;;;5.85;4.78;;;16.90;99.90;;;;;;4968816;28;20267;-31
2023/08/05 06:38:02;;;;;;;6.20;4.60;;;17.00;99.90;;;;;;4962330;28;20216;-28
2023/08/05 06:40:28;;;;;;;6.07;4.95;;;17.00;99.90;;;;;;4965908;28;20187;-27
2023/08/05 06:42:53;;;;;;;6.82;5.18;;;17.10;99.90;;;;;;4966470;28;20200;-29
2023/08/05 06:45:19;;;;;;;5.47;4.65;;;17.10;99.90;;;;;;4972840;28;20278;-29
2023/08/05 06:47:45;;;;;;;8.65;5.47;;;17.10;99.90;;;;;;4956839;28;20277;-28
2023/08/05 06:50:11;;;;;;;7.25;5.60;;;17.10;99.90;;;;;;4962813;28;20207;-28
2023/08/05 06:52:37;;;;;;;7.65;5.30;;;17.10;99.90;;;;;;4968924;28;20179;-28
2023/08/05 06:55:04;;;;;;;7.68;5.60;;;17.10;99.90;;;;;;4971666;28;20231;-29
2023/08/05 06:57:33;;;;;;;6.15;5.38;;;17.10;99.90;;;;;;4964939;28;20181;-28
2023/08/05 06:59:59;;;;;;;5.22;4.72;;;17.10;99.90;;;;;;4963674;28;20243;-28
2023/08/05 07:02:25;;;;;;;8.02;5.22;;;17.10;99.90;;;;;;4947359;28;20198;-28
2023/08/05 07:04:52;;;;;;;6.53;5.15;;;17.10;99.90;;;;;;4959217;28;20188;-28
2023/08/05 07:07:19;;;;;;;6.30;5.70;;;17.00;99.90;;;;;;4954602;28;20212;-28
2023/08/05 07:09:47;;;;;;;6.22;5.30;;;17.00;99.90;;;;;;4954255;28;20267;-28
2023/08/05 07:12:13;;;;;;;6.13;5.28;;;17.00;99.90;;;;;;4953498;28;20272;-29
2023/08/05 07:14:39;;;;;;;8.10;5.43;;;17.10;99.90;;;;;;4950393;28;20272;-29
2023/08/05 07:17:07;;;;;;;6.53;5.05;;;17.20;99.90;;;;;;4955216;28;20180;-28
2023/08/05 07:19:34;;;;;;;6.53;5.30;;;17.10;99.90;;;;;;4947107;28;20202;-29
2023/08/05 07:22:00;;;;;;;6.50;5.75;;;17.10;99.90;;;;;;4972025;28;20227;-28
2023/08/05 07:24:25;;;;;;;10.27;6.00;;;17.20;99.90;;;;;;4956549;28;20247;-28
2023/08/05 07:26:51;;;;;;;7.07;5.63;;;17.10;99.90;;;;;;4963546;28;20290;-28
2023/08/05 07:29:17;;;;;;;8.43;5.70;;;17.10;99.90;;;;;;4974965;28;20208;-29
2023/08/05 07:31:43;;;;;;;6.28;5.45;;;17.10;99.90;;;;;;4951800;28;20192;-29
2023/08/05 07:34:10;;;;;;;6.30;5.70;;;17.10;99.90;;;;;;4971533;28;20180;-29
2023/08/05 07:36:36;;;;;;;7.65;5.38;;;17.20;99.90;;;;;;4968268;28;20189;-28
2023/08/05 07:39:06;;;;;;;6.95;5.00;;;17.30;99.90;;;;;;4957256;28;20205;-28
2023/08/05 07:41:32;;;;;;;6.38;5.78;;;17.50;99.90;;;;;;4977537;28;20184;-28
2023/08/05 07:43:58;;;;;;;5.63;5.13;;;17.60;99.90;;;;;;4977137;28;20176;-29
2023/08/05 07:46:25;;;;;;;6.50;5.60;;;17.70;99.90;;;;;;4973533;28;20216;-27
2023/08/05 07:48:58;;;;;;;6.47;5.60;;;17.70;99.90;;;;;;4963558;28;20216;-28
2023/08/05 07:51:24;;;;;;;6.07;4.97;;;17.80;99.90;;;;;;4977054;28;20211;-29
2023/08/05 07:53:55;;;;;;;6.30;5.00;;;17.90;99.90;;;;;;4976963;28;20199;-29
2023/08/05 07:56:22;;;;;;;8.07;5.32;;;17.90;99.90;;;;;;4993214;28;20180;-28
2023/08/05 07:58:48;;;;;;;7.15;5.30;;;18.00;99.90;;;;;;4976784;28;20230;-29
2023/08/05 08:01:22;;;;;;;5.60;5.00;;;18.10;99.90;;;;;;4975773;28;20187;-28
2023/08/05 08:03:53;;;;;;;6.72;5.15;;;18.20;99.90;;;;;;4976928;28;20192;-31
2023/08/05 08:06:19;;;;;;;6.07;4.68;;;18.30;99.90;;;;;;4972815;28;20200;-29
2023/08/05 08:08:46;;;;;;;5.90;4.55;;;18.50;99.90;;;;;;4976630;28;20216;-28
2023/08/05 08:11:13;;;;;;;6.43;5.10;;;18.60;99.90;;;;;;4993196;28;20180;-28
2023/08/05 08:13:39;;;;;;;7.05;4.57;;;18.70;99.90;;;;;;4976689;28;20234;-28
2023/08/05 08:16:06;;;;;;;5.68;4.70;;;18.70;99.90;;;;;;4976254;28;20179;-28
2023/08/05 08:18:31;;;;;;;5.38;4.70;;;18.90;99.90;;;;;;4976059;28;20196;-28
2023/08/05 08:20:58;;;;;;;5.05;4.45;;;19.10;99.90;;;;;;4972524;28;20196;-29
2023/08/05 08:23:24;;;;;;;3.58;3.17;;;19.20;99.90;;;;;;4973914;28;20185;-28
2023/08/05 08:25:50;;;;;;;5.00;3.80;;;19.40;99.90;;;;;;4971515;28;20194;-28
2023/08/05 08:28:16;;;;;;;6.03;3.90;;;19.60;99.90;;;;;;4965829;28;20219;-29
2023/08/05 08:30:53;;;;;;;5.90;3.88;;;19.70;99.90;;;;;;4976499;28;20204;-28
2023/08/05 08:33:19;;;;;;;4.57;3.53;;;19.80;99.90;;;;;;4976058;28;20186;-28
2023/08/05 08:35:45;;;;;;;4.63;3.22;;;19.80;99.90;;;;;;4976078;28;20184;-28
2023/08/05 08:38:10;;;;;;;3.58;3.22;;;20.00;99.90;;;;;;4976074;28;20204;-28
2023/08/05 08:40:36;;;;;;;3.28;2.97;;;20.20;99.90;;;;;;4976195;28;20191;-27
2023/08/05 08:43:02;;;;;;;3.47;2.70;;;20.20;99.90;;;;;;4976092;28;20218;-29
2023/08/05 08:45:32;;;;;;;4.10;3.38;;;20.30;99.90;;;;;;4975898;28;20184;-30
2023/08/05 08:48:00;;;;;;;3.25;2.60;;;20.50;99.90;;;;;;4960455;28;20255;-28
2023/08/05 08:50:27;;;;;;;7.03;3.55;;;20.70;99.90;;;;;;4981896;28;20207;-28
2023/08/05 08:52:58;;;;;;;4.65;3.10;;;20.90;99.90;;;;;;4966392;28;20219;-29
2023/08/05 08:55:29;;;;;;;3.35;3.05;;;21.00;99.90;;;;;;4966641;28;20188;-28
2023/08/05 08:57:55;;;;;;;3.15;2.80;;;21.00;99.90;;;;;;4975492;28;20245;-28
2023/08/05 09:00:23;;;;;;;4.45;3.00;;;21.20;99.90;;;;;;4983755;28;20255;-29
2023/08/05 09:02:50;;;;;;;3.15;2.95;;;21.30;99.90;;;;;;4975568;28;20188;-28
2023/08/05 09:05:15;;;;;;;4.00;2.90;;;21.50;99.90;;;;;;4975435;28;20187;-29
2023/08/05 09:07:41;;;;;;;3.65;3.15;;;21.80;99.90;;;;;;4970644;28;20226;-29
2023/08/05 09:10:08;;;;;;;4.03;3.00;;;22.10;99.90;;;;;;4975539;28;20236;-28
2023/08/05 09:12:34;;;;;;;3.20;2.60;;;22.10;99.90;;;;;;4967924;28;20187;-29
2023/08/05 09:15:00;;;;;;;3.63;2.90;;;22.20;99.90;;;;;;4975221;28;20179;-28
2023/08/05 09:17:26;;;;;;;3.25;2.78;;;22.10;99.90;;;;;;4981642;28;20187;-28
2023/08/05 09:19:52;;;;;;;4.22;3.20;;;21.90;99.90;;;;;;4965342;28;20208;-29
2023/08/05 09:22:18;;;;;;;4.80;2.90;;;21.70;99.90;;;;;;4975383;28;20194;-28
2023/08/05 09:24:44;;;;;;;3.08;2.60;;;21.60;99.90;;;;;;4968537;28;20192;-28
2023/08/05 09:27:10;;;;;;;3.13;2.80;;;21.50;99.90;;;;;;4969138;28;20185;-28
2023/08/05 09:29:36;;;;;;;2.90;2.40;;;21.20;99.90;;;;;;4974053;28;20227;-29
2023/08/05 09:32:04;;;;;;;2.78;2.50;;;21.20;99.90;;;;;;4975058;28;20227;-28
2023/08/05 09:34:39;;;;;;;3.28;2.53;;;21.30;99.90;;;;;;4975256;28;20180;-28
2023/08/05 09:37:06;;;;;;;2.53;2.33;;;21.50;99.90;;;;;;4984686;28;20175;-28
2023/08/05 09:39:46;;;;;;;2.35;2.15;;;21.90;99.90;;;;;;4974579;28;20208;-29
2023/08/05 09:42:21;;;;;;;2.60;2.40;;;22.20;99.90;;;;;;4969572;28;20190;-29
2023/08/05 09:44:58;;;;;;;3.45;2.55;;;22.40;99.90;;;;;;4958858;28;20179;-28
2023/08/05 09:47:28;;;;;;;4.55;2.50;;;22.70;99.90;;;;;;4954247;28;20223;-28
2023/08/05 09:50:00;;;;;;;2.53;2.25;;;22.70;99.90;;;;;;4981614;28;20274;-29
2023/08/05 09:52:28;;;;;;;4.90;2.30;;;23.00;99.90;;;;;;4974073;28;20207;-29
2023/08/05 09:55:10;;;;;;;2.72;2.42;;;23.10;99.90;;;;;;4966702;28;20195;-28
2023/08/05 09:57:38;;;;;;;2.47;2.28;;;23.00;99.90;;;;;;4958392;28;20710;-29
2023/08/05 10:00:08;;;;;;;3.65;2.25;;;23.20;99.90;;;;;;4974277;28;20195;-28
2023/08/05 10:02:35;;;;;;;3.97;2.30;;;23.40;99.90;;;;;;4971402;28;20188;-29
2023/08/05 10:05:03;;;;;;;3.60;2.20;;;23.40;99.90;;;;;;4972050;28;20184;-28
2023/08/05 10:07:30;;;;;;;4.90;2.50;;;23.40;99.90;;;;;;4972126;28;20779;-29
2023/08/05 10:09:57;;;;;;;2.40;2.17;;;23.40;99.90;;;;;;4974384;28;20226;-28
2023/08/05 10:12:44;;;;;;;2.33;2.13;;;23.10;99.90;;;;;;4974625;28;20180;-29
2023/08/05 10:15:19;;;;;;;2.70;2.10;;;23.10;99.90;;;;;;4989940;28;20255;-29
2023/08/05 10:17:48;;;;;;;2.28;2.08;;;23.20;99.90;;;;;;4979742;28;20268;-29
2023/08/05 10:20:14;;;;;;;3.70;2.45;;;23.40;99.90;;;;;;4974694;28;20198;-28
2023/08/05 10:22:41;;;;;;;2.55;2.35;;;23.50;99.90;;;;;;4974249;28;20270;-29
2023/08/05 10:25:07;;;;;;;2.50;2.30;;;23.90;99.90;;;;;;4989592;28;20563;-29
2023/08/05 10:27:44;;;;;;;4.32;2.25;;;24.20;99.90;;;;;;4973447;28;20588;-29
2023/08/05 10:30:15;;;;;;;2.30;2.10;;;24.20;99.90;;;;;;4983477;28;20304;-28
2023/08/05 10:32:52;;;;;;;2.88;1.90;;;23.70;99.90;;;;;;4989779;28;20271;-28
2023/08/05 10:35:39;;;;;;;2.65;2.45;;;23.70;99.90;;;;;;4966526;28;20217;-29
2023/08/05 10:38:19;;;;;;;2.60;2.40;;;23.70;99.90;;;;;;4963300;28;20204;-29
2023/08/05 10:40:58;;;;;;;2.40;2.20;;;23.60;99.90;;;;;;4973929;28;20187;-30
2023/08/05 10:43:30;;;;;;;2.40;2.20;;;23.30;99.90;;;;;;4974233;28;20195;-29
2023/08/05 10:46:14;;;;;;;2.38;2.17;;;23.00;99.90;;;;;;4973875;28;20202;-29
2023/08/05 10:48:45;;;;;;;3.28;2.35;;;23.00;99.90;;;;;;4970272;28;20260;-30
2023/08/05 10:51:14;;;;;;;3.58;1.92;;;23.00;99.90;;;;;;4968383;28;20669;-29
2023/08/05 10:53:44;;;;;;;2.55;2.35;;;22.90;99.90;;;;;;4973699;28;20184;-29
2023/08/05 10:56:15;;;;;;;2.40;2.20;;;23.10;99.90;;;;;;4972337;28;20180;-29
2023/08/05 10:58:49;;;;;;;4.43;2.47;;;23.40;99.90;;;;;;4983161;28;20215;-30
2023/08/05 11:01:15;;;;;;;2.30;2.10;;;23.70;99.90;;;;;;4973607;28;20234;-30
2023/08/05 11:03:44;;;;;;;4.05;2.40;;;23.90;99.90;;;;;;4971190;28;20183;-29
2023/08/05 11:06:12;;;;;;;3.17;2.13;;;24.10;99.90;;;;;;4983823;28;20191;-30
2023/08/05 11:08:40;;;;;;;2.92;2.50;;;23.90;99.90;;;;;;4973692;28;20208;-29
2023/08/05 11:11:07;;;;;;;3.15;2.28;;;23.70;99.90;;;;;;4989838;28;20176;-30
2023/08/05 11:13:37;;;;;;;2.30;2.10;;;23.40;99.90;;;;;;4972148;28;20193;-29
2023/08/05 11:16:08;;;;;;;2.03;1.90;;;23.40;99.90;;;;;;4987008;28;20267;-30
2023/08/05 11:18:35;;;;;;;2.38;2.17;;;23.30;99.90;;;;;;4956323;28;20200;-29
2023/08/05 11:21:04;;;;;;;2.42;2.22;;;23.60;99.90;;;;;;4977328;28;20208;-30
2023/08/05 11:23:30;;;;;;;2.80;2.40;;;23.90;99.90;;;;;;4961800;28;20182;-30
2023/08/05 11:26:00;;;;;;;2.35;2.15;;;23.80;99.90;;;;;;4977283;28;20203;-29
2023/08/05 11:28:26;;;;;;;2.35;2.15;;;23.60;99.90;;;;;;4993564;28;20214;-29
2023/08/05 11:30:53;;;;;;;2.53;2.33;;;23.40;99.90;;;;;;4974691;28;20195;-29
2023/08/05 11:33:22;;;;;;;2.60;2.00;;;23.30;99.90;;;;;;4989909;28;20174;-29
2023/08/05 11:35:52;;;;;;;2.72;2.22;;;23.10;99.90;;;;;;4976901;28;20195;-29
2023/08/05 11:38:22;;;;;;;3.47;2.55;;;23.00;99.90;;;;;;4986460;28;20200;-30
2023/08/05 11:40:53;;;;;;;2.92;2.38;;;22.90;99.90;;;;;;4990993;28;20180;-29
2023/08/05 11:43:20;;;;;;;2.40;2.20;;;22.70;99.90;;;;;;4973535;28;20197;-29
2023/08/05 11:45:51;;;;;;;3.97;3.67;;;22.50;99.90;;;;;;4977062;28;20191;-29
2023/08/05 11:48:23;;;;;;;3.40;3.10;;;22.40;99.90;;;;;;4959220;28;20205;-29
2023/08/05 11:50:51;;;;;;;3.78;3.45;;;22.30;99.90;;;;;;4984544;28;20211;-29
2023/08/05 11:53:18;;;;;;;3.25;2.72;;;22.20;99.90;;;;;;4977190;28;20315;-29
2023/08/05 11:55:44;;;;;;;3.28;2.30;;;22.00;99.90;;;;;;4976581;28;20191;-29
2023/08/05 11:58:13;;;;;;;4.30;2.28;;;21.70;99.90;;;;;;4977515;28;20202;-28
2023/08/05 12:01:06;;;;;;;2.75;2.45;;;21.50;99.90;;;;;;4976867;28;20263;-29
2023/08/05 12:03:32;;;;;;;2.80;2.25;;;21.30;99.90;;;;;;4969182;28;20204;-29
2023/08/05 12:06:03;;;;;;;4.75;3.85;;;21.30;99.90;;;;;;4976978;28;20214;-28
2023/08/05 12:08:44;;;;;;;5.10;3.58;;;21.20;99.90;;;;;;4963367;28;20209;-29
2023/08/05 12:11:13;;;;;;;3.40;3.10;;;21.10;99.90;;;;;;4979865;28;20211;-29
2023/08/05 12:13:42;;;;;;;2.72;2.50;;;21.00;99.90;;;;;;4970057;28;20200;-28
2023/08/05 12:16:18;;;;;;;2.50;2.30;;;20.90;99.90;;;;;;4975279;28;20229;-29
2023/08/05 12:18:48;;;;;;;2.28;2.08;;;20.90;99.90;;;;;;4957198;28;20252;-28
2023/08/05 12:21:20;;;;;;;3.15;2.85;;;20.80;99.90;;;;;;4960039;28;20707;-28
2023/08/05 12:23:47;;;;;;;3.47;3.15;;;20.80;99.90;;;;;;4982164;28;20180;-28
2023/08/05 12:26:15;;;;;;;3.85;3.38;;;20.80;99.90;;;;;;4976389;28;20176;-29
2023/08/05 12:28:44;;;;;;;4.28;3.40;;;20.70;99.90;;;;;;4966546;28;20276;-29
2023/08/05 12:31:13;;;;;;;2.53;2.33;;;20.70;99.90;;;;;;4970659;28;20231;-29
2023/08/05 12:33:39;;;;;;;2.53;2.33;;;20.70;99.90;;;;;;4969934;28;20271;-28
2023/08/05 12:36:05;;;;;;;2.42;2.22;;;20.70;99.90;;;;;;4968675;28;20211;-28
2023/08/05 12:38:40;;;;;;;3.67;2.70;;;20.70;99.90;;;;;;4976367;28;20234;-29
2023/08/05 12:41:06;;;;;;;3.88;2.53;;;20.80;99.90;;;;;;4992969;28;20179;-29
2023/08/05 12:43:32;;;;;;;3.47;2.90;;;20.80;99.90;;;;;;4976299;28;20176;-29
2023/08/05 12:46:08;;;;;;;2.75;2.33;;;20.80;99.90;;;;;;4973170;28;20184;-29
2023/08/05 12:48:35;;;;;;;2.38;2.28;;;20.90;99.90;;;;;;4969651;28;20287;-29